sensor_id;sensor_type;location;lat;lon;timestamp;P1;durP1;ratioP1;P2;durP2;ratioP2
5823;SDS011;2938;52.254;12.988;2024-01-11T00:01:59;69.05;;;30.20;;
5823;SDS011;2938;52.254;12.988;2024-01-11T00:04:25;65.63;;;26.52;;
5823;SDS011;2938;52.254;12.988;2024-01-11T00:06:51;63.00;;;28.65;;
5823;SDS011;2938;52.254;12.988;2024-01-11T00:09:16;75.43;;;29.15;;
5823;SDS011;2938;52.254;12.988;2024-01-11T00:11:45;80.13;;;28.48;;
5823;SDS011;2938;52.254;12.988;2024-01-11T00:14:11;66.65;;;29.30;;
5823;SDS011;2938;52.254;12.988;2024-01-11T00:16:39;78.05;;;30.40;;
5823;SDS011;2938;52.254;12.988;2024-01-11T00:19:06;73.05;;;31.80;;
5823;SDS011;2938;52.254;12.988;2024-01-11T00:21:31;69.60;;;28.67;;
5823;SDS011;2938;52.254;12.988;2024-01-11T00:24:00;70.32;;;28.65;;
5823;SDS011;2938;52.254;12.988;2024-01-11T00:26:25;65.30;;;27.48;;
5823;SDS011;2938;52.254;12.988;2024-01-11T00:28:53;70.60;;;29.77;;
5823;SDS011;2938;52.254;12.988;2024-01-11T00:31:21;76.95;;;29.23;;
5823;SDS011;2938;52.254;12.988;2024-01-11T00:33:48;73.60;;;27.63;;
5823;SDS011;2938;52.254;12.988;2024-01-11T00:36:18;75.07;;;30.90;;
5823;SDS011;2938;52.254;12.988;2024-01-11T00:38:45;65.35;;;28.08;;
5823;SDS011;2938;52.254;12.988;2024-01-11T00:41:13;67.00;;;29.88;;
5823;SDS011;2938;52.254;12.988;2024-01-11T00:43:39;70.70;;;29.35;;
5823;SDS011;2938;52.254;12.988;2024-01-11T00:46:07;67.35;;;26.30;;
5823;SDS011;2938;52.254;12.988;2024-01-11T00:48:33;73.55;;;28.42;;
5823;SDS011;2938;52.254;12.988;2024-01-11T00:50:58;58.10;;;28.77;;
5823;SDS011;2938;52.254;12.988;2024-01-11T00:53:26;79.88;;;30.52;;
5823;SDS011;2938;52.254;12.988;2024-01-11T00:55:56;72.88;;;29.40;;
5823;SDS011;2938;52.254;12.988;2024-01-11T00:58:22;66.20;;;28.67;;
5823;SDS011;2938;52.254;12.988;2024-01-11T01:00:48;62.38;;;28.83;;
5823;SDS011;2938;52.254;12.988;2024-01-11T01:03:14;76.32;;;29.63;;
5823;SDS011;2938;52.254;12.988;2024-01-11T01:05:41;73.75;;;29.67;;
5823;SDS011;2938;52.254;12.988;2024-01-11T01:08:06;65.10;;;28.60;;
5823;SDS011;2938;52.254;12.988;2024-01-11T01:10:32;69.65;;;28.88;;
5823;SDS011;2938;52.254;12.988;2024-01-11T01:13:00;64.38;;;28.65;;
5823;SDS011;2938;52.254;12.988;2024-01-11T01:15:29;64.45;;;28.00;;
5823;SDS011;2938;52.254;12.988;2024-01-11T01:17:54;64.15;;;28.92;;
5823;SDS011;2938;52.254;12.988;2024-01-11T01:20:22;66.32;;;31.27;;
5823;SDS011;2938;52.254;12.988;2024-01-11T01:22:48;70.22;;;31.13;;
5823;SDS011;2938;52.254;12.988;2024-01-11T01:25:16;70.68;;;32.40;;
5823;SDS011;2938;52.254;12.988;2024-01-11T01:27:42;60.80;;;28.88;;
5823;SDS011;2938;52.254;12.988;2024-01-11T01:30:07;71.40;;;30.75;;
5823;SDS011;2938;52.254;12.988;2024-01-11T01:32:36;59.08;;;29.83;;
5823;SDS011;2938;52.254;12.988;2024-01-11T01:35:01;78.28;;;33.50;;
5823;SDS011;2938;52.254;12.988;2024-01-11T01:37:26;72.63;;;31.92;;
5823;SDS011;2938;52.254;12.988;2024-01-11T01:39:52;77.03;;;30.85;;
5823;SDS011;2938;52.254;12.988;2024-01-11T01:42:17;84.90;;;32.53;;
5823;SDS011;2938;52.254;12.988;2024-01-11T01:44:42;66.78;;;30.45;;
5823;SDS011;2938;52.254;12.988;2024-01-11T01:47:08;82.63;;;32.60;;
5823;SDS011;2938;52.254;12.988;2024-01-11T01:49:34;70.45;;;30.50;;
5823;SDS011;2938;52.254;12.988;2024-01-11T01:52:00;81.15;;;33.15;;
5823;SDS011;2938;52.254;12.988;2024-01-11T01:54:26;79.43;;;30.73;;
5823;SDS011;2938;52.254;12.988;2024-01-11T01:56:52;71.88;;;30.67;;
5823;SDS011;2938;52.254;12.988;2024-01-11T01:59:18;70.75;;;30.20;;
5823;SDS011;2938;52.254;12.988;2024-01-11T02:01:44;79.05;;;32.78;;
5823;SDS011;2938;52.254;12.988;2024-01-11T02:04:10;79.65;;;30.25;;
5823;SDS011;2938;52.254;12.988;2024-01-11T02:06:35;76.40;;;34.50;;
5823;SDS011;2938;52.254;12.988;2024-01-11T02:09:01;84.80;;;35.33;;
5823;SDS011;2938;52.254;12.988;2024-01-11T02:13:58;80.63;;;30.33;;
5823;SDS011;2938;52.254;12.988;2024-01-11T02:16:23;76.25;;;32.80;;
5823;SDS011;2938;52.254;12.988;2024-01-11T02:18:51;70.82;;;32.17;;
5823;SDS011;2938;52.254;12.988;2024-01-11T02:21:17;78.30;;;31.85;;
5823;SDS011;2938;52.254;12.988;2024-01-11T02:23:43;72.22;;;29.75;;
5823;SDS011;2938;52.254;12.988;2024-01-11T02:26:13;68.35;;;32.28;;
5823;SDS011;2938;52.254;12.988;2024-01-11T02:28:44;80.38;;;33.70;;
5823;SDS011;2938;52.254;12.988;2024-01-11T02:31:10;83.15;;;32.35;;
5823;SDS011;2938;52.254;12.988;2024-01-11T02:33:37;68.00;;;31.25;;
5823;SDS011;2938;52.254;12.988;2024-01-11T02:36:03;77.82;;;31.33;;
5823;SDS011;2938;52.254;12.988;2024-01-11T02:38:38;69.13;;;30.45;;
5823;SDS011;2938;52.254;12.988;2024-01-11T02:41:04;72.63;;;31.50;;
5823;SDS011;2938;52.254;12.988;2024-01-11T02:43:33;72.63;;;34.08;;
5823;SDS011;2938;52.254;12.988;2024-01-11T02:46:00;65.60;;;32.30;;
5823;SDS011;2938;52.254;12.988;2024-01-11T02:48:28;62.47;;;29.48;;
5823;SDS011;2938;52.254;12.988;2024-01-11T02:50:54;74.60;;;32.90;;
5823;SDS011;2938;52.254;12.988;2024-01-11T02:53:20;75.15;;;32.20;;
5823;SDS011;2938;52.254;12.988;2024-01-11T02:55:45;74.07;;;33.30;;
5823;SDS011;2938;52.254;12.988;2024-01-11T02:58:10;58.80;;;30.13;;
5823;SDS011;2938;52.254;12.988;2024-01-11T03:00:38;77.43;;;31.80;;
5823;SDS011;2938;52.254;12.988;2024-01-11T03:05:29;81.45;;;33.45;;
5823;SDS011;2938;52.254;12.988;2024-01-11T03:07:54;66.07;;;31.00;;
5823;SDS011;2938;52.254;12.988;2024-01-11T03:10:20;75.28;;;27.77;;
5823;SDS011;2938;52.254;12.988;2024-01-11T03:12:50;57.23;;;23.63;;
5823;SDS011;2938;52.254;12.988;2024-01-11T03:15:16;72.63;;;30.15;;
5823;SDS011;2938;52.254;12.988;2024-01-11T03:17:41;66.65;;;28.63;;
5823;SDS011;2938;52.254;12.988;2024-01-11T03:22:32;64.35;;;30.20;;
5823;SDS011;2938;52.254;12.988;2024-01-11T03:24:58;71.53;;;30.00;;
5823;SDS011;2938;52.254;12.988;2024-01-11T03:27:23;58.88;;;27.08;;
5823;SDS011;2938;52.254;12.988;2024-01-11T03:29:48;73.15;;;30.77;;
5823;SDS011;2938;52.254;12.988;2024-01-11T03:32:15;68.35;;;32.85;;
5823;SDS011;2938;52.254;12.988;2024-01-11T03:34:40;70.25;;;29.20;;
5823;SDS011;2938;52.254;12.988;2024-01-11T03:37:06;69.93;;;29.52;;
5823;SDS011;2938;52.254;12.988;2024-01-11T03:39:34;80.15;;;32.03;;
5823;SDS011;2938;52.254;12.988;2024-01-11T03:41:59;64.68;;;28.80;;
5823;SDS011;2938;52.254;12.988;2024-01-11T03:44:25;66.55;;;29.05;;
5823;SDS011;2938;52.254;12.988;2024-01-11T03:46:50;73.13;;;32.15;;
5823;SDS011;2938;52.254;12.988;2024-01-11T03:49:18;57.25;;;27.70;;
5823;SDS011;2938;52.254;12.988;2024-01-11T03:51:43;69.68;;;27.80;;
5823;SDS011;2938;52.254;12.988;2024-01-11T03:54:09;75.18;;;28.50;;
5823;SDS011;2938;52.254;12.988;2024-01-11T03:56:43;75.35;;;29.80;;
5823;SDS011;2938;52.254;12.988;2024-01-11T03:59:11;67.75;;;27.08;;
5823;SDS011;2938;52.254;12.988;2024-01-11T04:01:40;53.85;;;27.95;;
5823;SDS011;2938;52.254;12.988;2024-01-11T04:04:06;63.72;;;28.35;;
5823;SDS011;2938;52.254;12.988;2024-01-11T04:06:32;60.30;;;28.23;;
5823;SDS011;2938;52.254;12.988;2024-01-11T04:08:58;63.50;;;28.02;;
5823;SDS011;2938;52.254;12.988;2024-01-11T04:11:27;56.55;;;26.42;;
5823;SDS011;2938;52.254;12.988;2024-01-11T04:13:53;52.55;;;24.90;;
5823;SDS011;2938;52.254;12.988;2024-01-11T04:16:18;60.10;;;26.85;;
5823;SDS011;2938;52.254;12.988;2024-01-11T04:18:44;58.17;;;25.92;;
5823;SDS011;2938;52.254;12.988;2024-01-11T04:21:21;72.40;;;28.58;;
5823;SDS011;2938;52.254;12.988;2024-01-11T04:23:47;58.47;;;26.23;;
5823;SDS011;2938;52.254;12.988;2024-01-11T04:26:16;67.80;;;28.25;;
5823;SDS011;2938;52.254;12.988;2024-01-11T04:28:47;49.47;;;21.08;;
5823;SDS011;2938;52.254;12.988;2024-01-11T04:31:16;59.03;;;25.38;;
5823;SDS011;2938;52.254;12.988;2024-01-11T04:33:42;58.65;;;27.38;;
5823;SDS011;2938;52.254;12.988;2024-01-11T04:36:17;51.03;;;25.20;;
5823;SDS011;2938;52.254;12.988;2024-01-11T04:38:43;56.78;;;26.50;;
5823;SDS011;2938;52.254;12.988;2024-01-11T04:41:14;49.85;;;21.10;;
5823;SDS011;2938;52.254;12.988;2024-01-11T04:43:46;59.10;;;25.15;;
5823;SDS011;2938;52.254;12.988;2024-01-11T04:46:15;59.80;;;26.38;;
5823;SDS011;2938;52.254;12.988;2024-01-11T04:48:48;59.85;;;26.02;;
5823;SDS011;2938;52.254;12.988;2024-01-11T04:51:17;51.25;;;25.15;;
5823;SDS011;2938;52.254;12.988;2024-01-11T04:53:43;56.03;;;26.67;;
5823;SDS011;2938;52.254;12.988;2024-01-11T04:56:14;66.05;;;28.52;;
5823;SDS011;2938;52.254;12.988;2024-01-11T04:58:40;60.30;;;27.52;;
5823;SDS011;2938;52.254;12.988;2024-01-11T05:01:07;64.63;;;27.02;;
5823;SDS011;2938;52.254;12.988;2024-01-11T05:03:32;57.35;;;26.65;;
5823;SDS011;2938;52.254;12.988;2024-01-11T05:06:06;54.40;;;26.17;;
5823;SDS011;2938;52.254;12.988;2024-01-11T05:08:32;70.90;;;25.67;;
5823;SDS011;2938;52.254;12.988;2024-01-11T05:10:57;55.15;;;25.00;;
5823;SDS011;2938;52.254;12.988;2024-01-11T05:13:22;48.85;;;23.27;;
5823;SDS011;2938;52.254;12.988;2024-01-11T05:15:48;58.85;;;24.70;;
5823;SDS011;2938;52.254;12.988;2024-01-11T05:18:13;70.10;;;24.63;;
5823;SDS011;2938;52.254;12.988;2024-01-11T05:20:41;68.25;;;25.83;;
5823;SDS011;2938;52.254;12.988;2024-01-11T05:23:10;78.82;;;27.23;;
5823;SDS011;2938;52.254;12.988;2024-01-11T05:25:36;64.03;;;26.20;;
5823;SDS011;2938;52.254;12.988;2024-01-11T05:28:02;62.92;;;25.05;;
5823;SDS011;2938;52.254;12.988;2024-01-11T05:30:28;58.33;;;22.23;;
5823;SDS011;2938;52.254;12.988;2024-01-11T05:32:57;47.05;;;20.60;;
5823;SDS011;2938;52.254;12.988;2024-01-11T05:35:23;52.30;;;19.23;;
5823;SDS011;2938;52.254;12.988;2024-01-11T05:37:52;50.28;;;20.75;;
5823;SDS011;2938;52.254;12.988;2024-01-11T05:40:19;43.50;;;20.35;;
5823;SDS011;2938;52.254;12.988;2024-01-11T05:42:45;39.42;;;19.48;;
5823;SDS011;2938;52.254;12.988;2024-01-11T05:45:10;42.85;;;21.10;;
5823;SDS011;2938;52.254;12.988;2024-01-11T05:47:44;48.22;;;21.05;;
5823;SDS011;2938;52.254;12.988;2024-01-11T05:50:17;41.30;;;17.90;;
5823;SDS011;2938;52.254;12.988;2024-01-11T05:52:42;48.30;;;19.95;;
5823;SDS011;2938;52.254;12.988;2024-01-11T05:55:08;36.65;;;17.10;;
5823;SDS011;2938;52.254;12.988;2024-01-11T05:57:36;39.65;;;18.30;;
5823;SDS011;2938;52.254;12.988;2024-01-11T06:00:02;47.33;;;18.20;;
5823;SDS011;2938;52.254;12.988;2024-01-11T06:02:28;49.63;;;19.25;;
5823;SDS011;2938;52.254;12.988;2024-01-11T06:04:57;36.92;;;19.17;;
5823;SDS011;2938;52.254;12.988;2024-01-11T06:07:28;49.38;;;20.27;;
5823;SDS011;2938;52.254;12.988;2024-01-11T06:09:54;44.65;;;19.83;;
5823;SDS011;2938;52.254;12.988;2024-01-11T06:12:32;47.72;;;19.65;;
5823;SDS011;2938;52.254;12.988;2024-01-11T06:14:58;48.65;;;19.27;;
5823;SDS011;2938;52.254;12.988;2024-01-11T06:17:23;37.80;;;17.77;;
5823;SDS011;2938;52.254;12.988;2024-01-11T06:19:51;42.72;;;18.40;;
5823;SDS011;2938;52.254;12.988;2024-01-11T06:24:44;38.15;;;17.27;;
5823;SDS011;2938;52.254;12.988;2024-01-11T06:27:12;36.83;;;15.90;;
5823;SDS011;2938;52.254;12.988;2024-01-11T06:29:38;42.80;;;15.82;;
5823;SDS011;2938;52.254;12.988;2024-01-11T06:32:04;49.33;;;18.17;;
5823;SDS011;2938;52.254;12.988;2024-01-11T06:34:29;38.38;;;16.58;;
5823;SDS011;2938;52.254;12.988;2024-01-11T06:36:55;32.30;;;14.57;;
5823;SDS011;2938;52.254;12.988;2024-01-11T06:39:22;41.80;;;16.52;;
5823;SDS011;2938;52.254;12.988;2024-01-11T06:41:48;34.35;;;13.48;;
5823;SDS011;2938;52.254;12.988;2024-01-11T06:44:13;31.73;;;12.10;;
5823;SDS011;2938;52.254;12.988;2024-01-11T06:46:39;30.63;;;12.30;;
5823;SDS011;2938;52.254;12.988;2024-01-11T06:49:06;27.15;;;12.63;;
5823;SDS011;2938;52.254;12.988;2024-01-11T06:51:39;28.42;;;12.07;;
5823;SDS011;2938;52.254;12.988;2024-01-11T06:54:06;38.45;;;16.13;;
5823;SDS011;2938;52.254;12.988;2024-01-11T06:56:32;41.33;;;17.08;;
5823;SDS011;2938;52.254;12.988;2024-01-11T06:59:00;41.90;;;17.98;;
5823;SDS011;2938;52.254;12.988;2024-01-11T07:01:50;43.50;;;17.80;;
5823;SDS011;2938;52.254;12.988;2024-01-11T07:04:19;43.33;;;18.88;;
5823;SDS011;2938;52.254;12.988;2024-01-11T07:06:44;41.25;;;18.77;;
5823;SDS011;2938;52.254;12.988;2024-01-11T07:09:09;45.13;;;17.85;;
5823;SDS011;2938;52.254;12.988;2024-01-11T07:11:39;41.70;;;18.73;;
5823;SDS011;2938;52.254;12.988;2024-01-11T07:14:05;43.15;;;18.70;;
5823;SDS011;2938;52.254;12.988;2024-01-11T07:16:32;44.97;;;19.27;;
5823;SDS011;2938;52.254;12.988;2024-01-11T07:19:00;38.05;;;17.05;;
5823;SDS011;2938;52.254;12.988;2024-01-11T07:21:25;36.67;;;18.23;;
5823;SDS011;2938;52.254;12.988;2024-01-11T07:23:55;47.22;;;21.15;;
5823;SDS011;2938;52.254;12.988;2024-01-11T07:26:23;43.60;;;19.98;;
5823;SDS011;2938;52.254;12.988;2024-01-11T07:28:49;43.95;;;20.45;;
5823;SDS011;2938;52.254;12.988;2024-01-11T07:31:15;46.08;;;18.95;;
5823;SDS011;2938;52.254;12.988;2024-01-11T07:33:49;49.47;;;19.00;;
5823;SDS011;2938;52.254;12.988;2024-01-11T07:36:35;53.67;;;19.33;;
5823;SDS011;2938;52.254;12.988;2024-01-11T07:39:00;41.70;;;19.98;;
5823;SDS011;2938;52.254;12.988;2024-01-11T07:41:33;45.08;;;19.58;;
5823;SDS011;2938;52.254;12.988;2024-01-11T07:44:01;60.20;;;23.85;;
5823;SDS011;2938;52.254;12.988;2024-01-11T07:47:09;49.67;;;19.77;;
5823;SDS011;2938;52.254;12.988;2024-01-11T07:49:22;49.28;;;20.02;;
5823;SDS011;2938;52.254;12.988;2024-01-11T07:51:50;56.90;;;21.85;;
5823;SDS011;2938;52.254;12.988;2024-01-11T07:54:25;40.58;;;18.70;;
5823;SDS011;2938;52.254;12.988;2024-01-11T07:56:51;51.63;;;19.70;;
5823;SDS011;2938;52.254;12.988;2024-01-11T07:59:16;48.90;;;20.02;;
5823;SDS011;2938;52.254;12.988;2024-01-11T08:04:16;50.53;;;22.05;;
5823;SDS011;2938;52.254;12.988;2024-01-11T08:06:49;53.38;;;20.77;;
5823;SDS011;2938;52.254;12.988;2024-01-11T08:09:14;51.00;;;20.90;;
5823;SDS011;2938;52.254;12.988;2024-01-11T08:11:43;45.53;;;18.88;;
5823;SDS011;2938;52.254;12.988;2024-01-11T08:16:37;42.38;;;19.83;;
5823;SDS011;2938;52.254;12.988;2024-01-11T08:19:05;35.10;;;18.38;;
5823;SDS011;2938;52.254;12.988;2024-01-11T08:21:31;45.55;;;17.10;;
5823;SDS011;2938;52.254;12.988;2024-01-11T08:23:56;49.97;;;19.58;;
5823;SDS011;2938;52.254;12.988;2024-01-11T08:26:28;44.65;;;19.35;;
5823;SDS011;2938;52.254;12.988;2024-01-11T08:28:57;46.72;;;19.42;;
5823;SDS011;2938;52.254;12.988;2024-01-11T08:31:29;55.08;;;20.00;;
5823;SDS011;2938;52.254;12.988;2024-01-11T08:34:00;45.40;;;19.05;;
5823;SDS011;2938;52.254;12.988;2024-01-11T08:36:32;45.05;;;20.95;;
5823;SDS011;2938;52.254;12.988;2024-01-11T08:38:59;44.58;;;20.92;;
5823;SDS011;2938;52.254;12.988;2024-01-11T08:41:27;45.10;;;19.98;;
5823;SDS011;2938;52.254;12.988;2024-01-11T08:43:53;39.55;;;17.35;;
5823;SDS011;2938;52.254;12.988;2024-01-11T08:46:26;48.08;;;17.42;;
5823;SDS011;2938;52.254;12.988;2024-01-11T08:48:54;43.25;;;19.98;;
5823;SDS011;2938;52.254;12.988;2024-01-11T08:51:21;44.92;;;19.58;;
5823;SDS011;2938;52.254;12.988;2024-01-11T08:53:47;48.13;;;20.98;;
5823;SDS011;2938;52.254;12.988;2024-01-11T08:56:12;42.55;;;18.38;;
5823;SDS011;2938;52.254;12.988;2024-01-11T08:58:49;44.03;;;19.10;;
5823;SDS011;2938;52.254;12.988;2024-01-11T09:01:17;44.03;;;20.60;;
5823;SDS011;2938;52.254;12.988;2024-01-11T09:03:50;38.58;;;18.88;;
5823;SDS011;2938;52.254;12.988;2024-01-11T09:06:21;47.00;;;19.65;;
5823;SDS011;2938;52.254;12.988;2024-01-11T09:08:48;38.20;;;16.25;;
5823;SDS011;2938;52.254;12.988;2024-01-11T09:11:28;51.55;;;18.02;;
5823;SDS011;2938;52.254;12.988;2024-01-11T09:13:57;38.55;;;18.52;;
5823;SDS011;2938;52.254;12.988;2024-01-11T09:16:23;41.13;;;18.48;;
5823;SDS011;2938;52.254;12.988;2024-01-11T09:18:53;50.75;;;20.38;;
5823;SDS011;2938;52.254;12.988;2024-01-11T09:21:25;41.10;;;17.08;;
5823;SDS011;2938;52.254;12.988;2024-01-11T09:23:56;57.78;;;17.70;;
5823;SDS011;2938;52.254;12.988;2024-01-11T09:26:49;51.92;;;19.70;;
5823;SDS011;2938;52.254;12.988;2024-01-11T09:29:15;51.08;;;16.95;;
5823;SDS011;2938;52.254;12.988;2024-01-11T09:31:43;39.50;;;18.13;;
5823;SDS011;2938;52.254;12.988;2024-01-11T09:34:11;36.28;;;16.02;;
5823;SDS011;2938;52.254;12.988;2024-01-11T09:36:42;55.50;;;18.27;;
5823;SDS011;2938;52.254;12.988;2024-01-11T09:39:15;40.15;;;16.48;;
5823;SDS011;2938;52.254;12.988;2024-01-11T09:41:42;39.83;;;17.10;;
5823;SDS011;2938;52.254;12.988;2024-01-11T09:44:09;36.40;;;17.20;;
5823;SDS011;2938;52.254;12.988;2024-01-11T09:46:35;49.15;;;20.08;;
5823;SDS011;2938;52.254;12.988;2024-01-11T09:49:01;44.42;;;17.63;;
5823;SDS011;2938;52.254;12.988;2024-01-11T09:51:28;44.80;;;16.35;;
5823;SDS011;2938;52.254;12.988;2024-01-11T09:53:57;45.83;;;18.45;;
5823;SDS011;2938;52.254;12.988;2024-01-11T09:56:23;57.47;;;20.67;;
5823;SDS011;2938;52.254;12.988;2024-01-11T09:58:50;44.28;;;20.33;;
5823;SDS011;2938;52.254;12.988;2024-01-11T10:01:15;52.45;;;20.85;;
5823;SDS011;2938;52.254;12.988;2024-01-11T10:03:41;44.63;;;20.65;;
5823;SDS011;2938;52.254;12.988;2024-01-11T10:06:07;51.50;;;20.63;;
5823;SDS011;2938;52.254;12.988;2024-01-11T10:08:34;49.17;;;20.30;;
5823;SDS011;2938;52.254;12.988;2024-01-11T10:11:03;47.80;;;18.92;;
5823;SDS011;2938;52.254;12.988;2024-01-11T10:13:30;47.53;;;21.25;;
5823;SDS011;2938;52.254;12.988;2024-01-11T10:16:06;48.25;;;20.63;;
5823;SDS011;2938;52.254;12.988;2024-01-11T10:18:38;53.40;;;20.42;;
5823;SDS011;2938;52.254;12.988;2024-01-11T10:21:07;49.25;;;20.40;;
5823;SDS011;2938;52.254;12.988;2024-01-11T10:23:35;41.90;;;17.92;;
5823;SDS011;2938;52.254;12.988;2024-01-11T10:26:01;48.90;;;18.67;;
5823;SDS011;2938;52.254;12.988;2024-01-11T10:28:32;45.88;;;18.90;;
5823;SDS011;2938;52.254;12.988;2024-01-11T10:31:06;45.28;;;16.85;;
5823;SDS011;2938;52.254;12.988;2024-01-11T10:33:33;45.75;;;18.40;;
5823;SDS011;2938;52.254;12.988;2024-01-11T10:35:58;47.13;;;18.65;;
5823;SDS011;2938;52.254;12.988;2024-01-11T10:38:25;49.38;;;19.63;;
5823;SDS011;2938;52.254;12.988;2024-01-11T10:40:51;47.25;;;20.75;;
5823;SDS011;2938;52.254;12.988;2024-01-11T10:43:21;52.38;;;18.10;;
5823;SDS011;2938;52.254;12.988;2024-01-11T10:45:48;47.75;;;19.25;;
5823;SDS011;2938;52.254;12.988;2024-01-11T10:48:21;42.75;;;19.55;;
5823;SDS011;2938;52.254;12.988;2024-01-11T10:50:55;47.05;;;19.33;;
5823;SDS011;2938;52.254;12.988;2024-01-11T10:53:31;32.25;;;16.08;;
5823;SDS011;2938;52.254;12.988;2024-01-11T10:56:16;45.78;;;13.93;;
5823;SDS011;2938;52.254;12.988;2024-01-11T10:58:42;50.05;;;21.02;;
5823;SDS011;2938;52.254;12.988;2024-01-11T11:01:14;41.40;;;19.38;;
5823;SDS011;2938;52.254;12.988;2024-01-11T11:03:49;45.92;;;20.17;;
5823;SDS011;2938;52.254;12.988;2024-01-11T11:06:18;44.10;;;18.88;;
5823;SDS011;2938;52.254;12.988;2024-01-11T11:08:44;53.45;;;18.42;;
5823;SDS011;2938;52.254;12.988;2024-01-11T11:11:12;38.00;;;18.15;;
5823;SDS011;2938;52.254;12.988;2024-01-11T11:13:46;42.92;;;17.50;;
5823;SDS011;2938;52.254;12.988;2024-01-11T11:16:18;45.58;;;18.67;;
5823;SDS011;2938;52.254;12.988;2024-01-11T11:18:44;45.67;;;17.77;;
5823;SDS011;2938;52.254;12.988;2024-01-11T11:21:10;46.22;;;18.88;;
5823;SDS011;2938;52.254;12.988;2024-01-11T11:23:36;37.88;;;17.58;;
5823;SDS011;2938;52.254;12.988;2024-01-11T11:26:02;34.78;;;16.20;;
5823;SDS011;2938;52.254;12.988;2024-01-11T11:28:38;44.22;;;18.70;;
5823;SDS011;2938;52.254;12.988;2024-01-11T11:31:05;43.65;;;16.75;;
5823;SDS011;2938;52.254;12.988;2024-01-11T11:33:30;42.72;;;20.33;;
5823;SDS011;2938;52.254;12.988;2024-01-11T11:38:43;38.65;;;18.73;;
5823;SDS011;2938;52.254;12.988;2024-01-11T11:41:08;47.70;;;19.73;;
5823;SDS011;2938;52.254;12.988;2024-01-11T11:43:34;41.13;;;16.40;;
5823;SDS011;2938;52.254;12.988;2024-01-11T11:46:01;44.28;;;18.65;;
5823;SDS011;2938;52.254;12.988;2024-01-11T11:51:02;40.05;;;18.88;;
5823;SDS011;2938;52.254;12.988;2024-01-11T11:53:36;47.45;;;18.15;;
5823;SDS011;2938;52.254;12.988;2024-01-11T11:56:03;45.45;;;19.67;;
5823;SDS011;2938;52.254;12.988;2024-01-11T11:58:29;49.58;;;17.75;;
5823;SDS011;2938;52.254;12.988;2024-01-11T12:00:56;46.85;;;20.52;;
5823;SDS011;2938;52.254;12.988;2024-01-11T12:03:23;48.28;;;18.75;;
5823;SDS011;2938;52.254;12.988;2024-01-11T12:05:54;38.13;;;17.83;;
5823;SDS011;2938;52.254;12.988;2024-01-11T12:10:45;40.47;;;18.38;;
5823;SDS011;2938;52.254;12.988;2024-01-11T12:13:11;38.30;;;17.73;;
5823;SDS011;2938;52.254;12.988;2024-01-11T12:15:36;45.80;;;19.70;;
5823;SDS011;2938;52.254;12.988;2024-01-11T12:18:02;51.85;;;21.88;;
5823;SDS011;2938;52.254;12.988;2024-01-11T12:20:28;52.97;;;19.83;;
5823;SDS011;2938;52.254;12.988;2024-01-11T12:22:54;44.45;;;19.85;;
5823;SDS011;2938;52.254;12.988;2024-01-11T12:25:19;46.15;;;18.83;;
5823;SDS011;2938;52.254;12.988;2024-01-11T12:27:46;56.58;;;19.92;;
5823;SDS011;2938;52.254;12.988;2024-01-11T12:30:16;47.42;;;19.70;;
5823;SDS011;2938;52.254;12.988;2024-01-11T12:32:58;43.50;;;18.00;;
5823;SDS011;2938;52.254;12.988;2024-01-11T12:35:29;42.35;;;19.88;;
5823;SDS011;2938;52.254;12.988;2024-01-11T12:37:55;47.03;;;19.92;;
5823;SDS011;2938;52.254;12.988;2024-01-11T12:40:24;46.17;;;19.63;;
5823;SDS011;2938;52.254;12.988;2024-01-11T12:42:52;43.22;;;19.23;;
5823;SDS011;2938;52.254;12.988;2024-01-11T12:47:46;60.97;;;21.63;;
5823;SDS011;2938;52.254;12.988;2024-01-11T12:50:11;40.70;;;19.15;;
5823;SDS011;2938;52.254;12.988;2024-01-11T12:52:37;56.63;;;21.92;;
5823;SDS011;2938;52.254;12.988;2024-01-11T12:55:03;55.55;;;21.02;;
5823;SDS011;2938;52.254;12.988;2024-01-11T12:57:29;44.65;;;18.75;;
5823;SDS011;2938;52.254;12.988;2024-01-11T12:59:54;46.08;;;20.70;;
5823;SDS011;2938;52.254;12.988;2024-01-11T13:02:34;53.25;;;20.08;;
5823;SDS011;2938;52.254;12.988;2024-01-11T13:04:59;49.10;;;18.25;;
5823;SDS011;2938;52.254;12.988;2024-01-11T13:07:27;52.08;;;21.55;;
5823;SDS011;2938;52.254;12.988;2024-01-11T13:09:52;61.10;;;23.10;;
5823;SDS011;2938;52.254;12.988;2024-01-11T13:12:17;61.17;;;21.98;;
5823;SDS011;2938;52.254;12.988;2024-01-11T13:14:45;64.55;;;21.63;;
5823;SDS011;2938;52.254;12.988;2024-01-11T13:17:11;47.40;;;22.33;;
5823;SDS011;2938;52.254;12.988;2024-01-11T13:19:36;41.10;;;18.08;;
5823;SDS011;2938;52.254;12.988;2024-01-11T13:22:02;52.88;;;22.05;;
5823;SDS011;2938;52.254;12.988;2024-01-11T13:24:27;52.30;;;20.73;;
5823;SDS011;2938;52.254;12.988;2024-01-11T13:26:53;48.90;;;21.25;;
5823;SDS011;2938;52.254;12.988;2024-01-11T13:29:20;60.65;;;21.92;;
5823;SDS011;2938;52.254;12.988;2024-01-11T13:31:45;51.65;;;24.85;;
5823;SDS011;2938;52.254;12.988;2024-01-11T13:34:11;61.72;;;22.70;;
5823;SDS011;2938;52.254;12.988;2024-01-11T13:36:36;62.05;;;21.10;;
5823;SDS011;2938;52.254;12.988;2024-01-11T13:39:01;62.47;;;23.95;;
5823;SDS011;2938;52.254;12.988;2024-01-11T13:41:27;70.78;;;25.02;;
5823;SDS011;2938;52.254;12.988;2024-01-11T13:43:52;51.15;;;23.33;;
5823;SDS011;2938;52.254;12.988;2024-01-11T13:46:19;57.65;;;22.40;;
5823;SDS011;2938;52.254;12.988;2024-01-11T13:48:44;53.28;;;23.50;;
5823;SDS011;2938;52.254;12.988;2024-01-11T13:51:10;53.80;;;23.13;;
5823;SDS011;2938;52.254;12.988;2024-01-11T13:53:38;61.92;;;24.00;;
5823;SDS011;2938;52.254;12.988;2024-01-11T13:56:03;49.78;;;21.48;;
5823;SDS011;2938;52.254;12.988;2024-01-11T13:58:29;69.10;;;26.15;;
5823;SDS011;2938;52.254;12.988;2024-01-11T14:00:54;56.38;;;24.17;;
5823;SDS011;2938;52.254;12.988;2024-01-11T14:03:20;51.42;;;20.38;;
5823;SDS011;2938;52.254;12.988;2024-01-11T14:05:45;58.42;;;25.92;;
5823;SDS011;2938;52.254;12.988;2024-01-11T14:08:14;51.90;;;23.13;;
5823;SDS011;2938;52.254;12.988;2024-01-11T14:10:39;56.72;;;23.15;;
5823;SDS011;2938;52.254;12.988;2024-01-11T14:13:05;56.60;;;23.13;;
5823;SDS011;2938;52.254;12.988;2024-01-11T14:15:30;56.35;;;23.30;;
5823;SDS011;2938;52.254;12.988;2024-01-11T14:17:56;50.47;;;22.02;;
5823;SDS011;2938;52.254;12.988;2024-01-11T14:20:21;54.97;;;24.15;;
5823;SDS011;2938;52.254;12.988;2024-01-11T14:22:47;52.08;;;21.00;;
5823;SDS011;2938;52.254;12.988;2024-01-11T14:25:15;55.70;;;18.83;;
5823;SDS011;2938;52.254;12.988;2024-01-11T14:27:41;53.75;;;22.65;;
5823;SDS011;2938;52.254;12.988;2024-01-11T14:30:09;53.85;;;22.83;;
5823;SDS011;2938;52.254;12.988;2024-01-11T14:32:36;50.25;;;21.60;;
5823;SDS011;2938;52.254;12.988;2024-01-11T14:35:05;51.78;;;21.25;;
5823;SDS011;2938;52.254;12.988;2024-01-11T14:37:32;50.95;;;19.35;;
5823;SDS011;2938;52.254;12.988;2024-01-11T14:40:00;51.50;;;20.92;;
5823;SDS011;2938;52.254;12.988;2024-01-11T14:42:26;53.67;;;21.60;;
5823;SDS011;2938;52.254;12.988;2024-01-11T14:44:52;50.17;;;20.58;;
5823;SDS011;2938;52.254;12.988;2024-01-11T14:47:17;44.95;;;20.05;;
5823;SDS011;2938;52.254;12.988;2024-01-11T14:49:43;56.58;;;23.08;;
5823;SDS011;2938;52.254;12.988;2024-01-11T14:52:09;52.33;;;20.20;;
5823;SDS011;2938;52.254;12.988;2024-01-11T14:54:34;53.28;;;20.23;;
5823;SDS011;2938;52.254;12.988;2024-01-11T14:57:03;52.97;;;19.35;;
5823;SDS011;2938;52.254;12.988;2024-01-11T14:59:31;50.20;;;19.88;;
5823;SDS011;2938;52.254;12.988;2024-01-11T15:01:57;39.33;;;21.00;;